Martha's Vineyard, MA

9:17 PM EDT on June 18, 2018 (GMT -0400)
Martha's Vineyard

Weather History for KMVY - May, 2018

Change the Weather History Date:

Sunday, May 20, 2018

  Actual Average Record
Temperature  
Mean Temperature 60 °F -  
Max Temperature 63 °F 63 °F 78 °F (1986)
Min Temperature 57 °F 47 °F 28 °F (1992)
Degree Days  
Heating Degree Days 5    
Growing Degree Days 10 (Base 50)    
Moisture  
Dew Point 59 °F    
Average Humidity 98    
Maximum Humidity 100    
Minimum Humidity 90    
Precipitation  
Precipitation 0.24 in - - ()
Sea Level Pressure  
Sea Level Pressure 29.97 in    
Wind  
Wind Speed 13 mph (SW)    
Max Wind Speed 20 mph    
Max Gust Speed 29 mph    
Visibility 2 miles    
Events Fog , Rain    
Averages and records for this station are not official NWS values.
T = Trace of Precipitation, MM = Missing Value Source: NWS Daily Summary

Daily Weather History Graph

Daily Weather History Graph

Search for Another Location

Airport or City:

Astronomy

May. 20, 2018 Rise Set
Actual Time 5:19 AM EDT 7:59 PM EDT
Civil Twilight 4:47 AM EDT 8:31 PM EDT
Nautical Twilight 4:07 AM EDT 9:11 PM EDT
Astronomical Twilight 3:21 AM EDT 9:57 PM EDT
Moon 10:30 AM EDT (5/20) 12:21 AM EDT (5/20)
Length of Visible Light 15h 44m
Length of Day
14h 40m
Waxing Crescent, 33% of the Moon is Illuminated
May 20
Waxing Crescent
May 21
First Quarter
May 29
Full
Jun 6
Last Quarter
Jun 13
New

Hourly Weather History & Observations

Time (EDT) Temp. Dew Point Humidity Pressure Visibility Wind Dir Wind Speed Gust Speed Precip Events Conditions
12:53 AM 57.9 °F 57.9 °F 100% 30.09 in 1.5 mi SW 11.5 mph - N/A   Overcast
1:21 AM 57.9 °F 57.9 °F 100% 30.08 in 0.8 mi SW 12.7 mph - N/A   Mist
1:53 AM 57.9 °F 57.9 °F 100% 30.07 in 0.8 mi SW 11.5 mph 19.6 mph N/A   Mist
2:33 AM 57.9 °F 57.9 °F 100% 30.05 in 0.5 mi SW 11.5 mph - N/A Fog Fog
2:43 AM 57.9 °F 57.9 °F 100% 30.04 in 0.5 mi SW 13.8 mph - 0.01 in Fog , Rain Light Rain
2:53 AM 57.9 °F 57.9 °F 100% 30.04 in 0.8 mi SW 12.7 mph 21.9 mph 0.01 in Rain Light Rain
3:06 AM 57.9 °F 57.9 °F 100% 30.04 in 1.2 mi SW 11.5 mph - 0.00 in Rain Light Rain
3:23 AM 57.9 °F 57.9 °F 100% 30.04 in 2.5 mi SW 12.7 mph 19.6 mph 0.01 in Rain Light Rain
3:39 AM 59.0 °F 59.0 °F 100% 30.04 in 4.0 mi SW 17.3 mph 26.5 mph 0.03 in Rain Light Rain
3:53 AM 60.1 °F 60.1 °F 100% 30.04 in 6.0 mi SW 13.8 mph - 0.04 in Rain Light Rain
4:44 AM 57.9 °F 57.9 °F 100% 30.01 in 1.8 mi SSW 13.8 mph - 0.08 in Rain Light Rain
4:53 AM 57.9 °F 57.9 °F 100% 30.01 in 1.0 mi SSW 15.0 mph - 0.08 in Rain Light Rain
5:09 AM 57.0 °F 57.0 °F 100% 30.01 in 0.8 mi SSW 15.0 mph - 0.00 in   Mist
5:53 AM 59.0 °F 59.0 °F 100% 30.00 in 1.2 mi SSW 15.0 mph 23.0 mph 0.03 in Rain Light Rain
6:03 AM 57.9 °F 57.9 °F 100% 30.00 in 0.5 mi SSW 17.3 mph 25.3 mph 0.00 in Fog Fog
6:22 AM 59.0 °F 59.0 °F 100% 30.00 in 2.0 mi SW 16.1 mph 25.3 mph 0.00 in   Overcast
6:46 AM 59.0 °F 59.0 °F 100% 30.00 in 1.0 mi SW 13.8 mph 21.9 mph 0.00 in   Overcast
6:53 AM 59.0 °F 59.0 °F 100% 30.00 in 0.8 mi SW 16.1 mph 23.0 mph 0.00 in   Overcast
7:04 AM 59.0 °F 59.0 °F 100% 30.00 in 1.2 mi SW 15.0 mph 23.0 mph N/A   Overcast
7:24 AM 59.0 °F 59.0 °F 100% 30.00 in 0.2 mi SW 17.3 mph 26.5 mph N/A   Overcast
7:45 AM 59.0 °F 59.0 °F 100% 29.99 in 1.0 mi SW 16.1 mph 24.2 mph N/A   Overcast
7:53 AM 59.0 °F 59.0 °F 100% 29.99 in 1.0 mi SW 17.3 mph 24.2 mph 0.00 in Rain Light Rain
8:07 AM 57.9 °F 57.9 °F 100% 29.99 in 0.5 mi SW 15.0 mph 24.2 mph 0.00 in Fog Fog
8:43 AM 57.9 °F 57.9 °F 100% 29.98 in 0.2 mi SW 13.8 mph 21.9 mph 0.01 in Fog Fog
8:53 AM 57.9 °F 57.9 °F 100% 29.99 in 0.2 mi SW 15.0 mph 23.0 mph 0.01 in Fog Fog
9:21 AM 57.9 °F 57.9 °F 100% 29.97 in 0.5 mi SW 17.3 mph 26.5 mph N/A Fog Fog
9:30 AM 57.9 °F 57.9 °F 100% 29.97 in 0.2 mi SW 13.8 mph 24.2 mph N/A Fog Fog
9:40 AM 57.9 °F 57.9 °F 100% 29.97 in 0.5 mi SW 15.0 mph 28.8 mph N/A Fog Fog
9:53 AM 57.9 °F 57.9 °F 100% 29.97 in 0.8 mi SW 17.3 mph 23.0 mph N/A   Overcast
10:53 AM 57.9 °F 57.9 °F 100% 29.96 in 0.2 mi SW 18.4 mph 24.2 mph N/A Fog Fog
11:11 AM 57.9 °F 57.9 °F 100% 29.95 in 0.2 mi SW 16.1 mph 27.6 mph N/A Fog Fog
11:30 AM 57.9 °F 57.9 °F 100% 29.95 in 0.2 mi SW 17.3 mph 25.3 mph N/A Fog Fog
11:40 AM 59.0 °F 59.0 °F 100% 29.94 in 0.2 mi SSW 17.3 mph 24.2 mph N/A Fog Fog
11:43 AM 59.0 °F 59.0 °F 100% 29.94 in 0.5 mi SW 16.1 mph 24.2 mph N/A Fog Fog
11:53 AM 59.0 °F 59.0 °F 100% 29.94 in 0.8 mi SW 16.1 mph 24.2 mph N/A   Overcast
12:00 PM 59.0 °F 59.0 °F 100% 29.94 in 1.2 mi SW 17.3 mph 26.5 mph N/A   Overcast
12:16 PM 59.0 °F 57.9 °F 96% 29.94 in 2.0 mi SW 12.7 mph 24.2 mph N/A   Overcast
12:26 PM 59.0 °F 59.0 °F 100% 29.94 in 4.0 mi SW 12.7 mph 28.8 mph N/A   Overcast
12:47 PM 59.0 °F 57.2 °F 94% 29.93 in 1.8 mi SW 19.6 mph 25.3 mph N/A   Overcast
12:48 PM 59.0 °F 57.9 °F 96% 29.93 in 1.8 mi SW 18.4 mph 25.3 mph N/A   Overcast
12:56 PM 59.0 °F 57.9 °F 96% 29.93 in 2.0 mi SW 17.3 mph 26.5 mph N/A   Overcast
1:18 PM 60.1 °F 59.0 °F 96% 29.92 in 4.0 mi SW 16.1 mph 23.0 mph N/A   Overcast
1:29 PM 60.1 °F 59.0 °F 96% 29.92 in 2.0 mi SW 18.4 mph 27.6 mph N/A   Overcast
1:53 PM 60.1 °F 59.0 °F 96% 29.92 in 2.0 mi SW 16.1 mph 25.3 mph N/A   Overcast
2:00 PM 60.1 °F 59.0 °F 96% 29.91 in 3.0 mi SW 15.0 mph 25.3 mph N/A   Overcast
2:09 PM 61.0 °F 59.0 °F 93% 29.91 in 2.5 mi SW 17.3 mph 25.3 mph N/A   Overcast
2:18 PM 60.1 °F 57.9 °F 93% 29.91 in 3.0 mi SW 16.1 mph 27.6 mph N/A   Overcast
2:27 PM 60.1 °F 57.9 °F 93% 29.91 in 2.0 mi SW 16.1 mph 27.6 mph N/A   Overcast
2:53 PM 60.1 °F 57.9 °F 93% 29.91 in 2.0 mi SW 15.0 mph 24.2 mph N/A   Overcast
3:00 PM 61.0 °F 57.9 °F 90% 29.91 in 9.0 mi SW 11.5 mph 23.0 mph N/A   Overcast
3:53 PM 63.0 °F 60.1 °F 90% 29.91 in 4.0 mi SW 9.2 mph - N/A   Overcast
4:39 PM 63.0 °F 60.1 °F 90% 29.90 in 4.0 mi SW 11.5 mph - N/A   Overcast
4:53 PM 61.0 °F 57.9 °F 90% 29.90 in 4.0 mi SW 9.2 mph - N/A   Overcast
5:53 PM 62.1 °F 59.0 °F 90% 29.90 in 4.0 mi WSW 9.2 mph - N/A   Scattered Clouds
6:53 PM 63.0 °F 60.1 °F 90% 29.92 in 10.0 mi West 11.5 mph 18.4 mph N/A   Overcast
7:23 PM 60.1 °F 57.9 °F 93% 29.93 in 2.0 mi WSW 4.6 mph - 0.03 in Rain Rain
7:31 PM 60.1 °F 59.0 °F 96% 29.92 in 1.8 mi WSW 3.5 mph - 0.05 in Rain Light Rain
7:35 PM 60.1 °F 59.0 °F 96% 29.92 in 3.0 mi West 3.5 mph - 0.06 in Rain Light Rain
7:53 PM 60.1 °F 60.1 °F 100% 29.93 in 6.0 mi WSW 4.6 mph - 0.07 in Rain Light Rain
8:53 PM 57.9 °F 57.0 °F 97% 29.94 in 5.0 mi West 4.6 mph - 0.00 in   Overcast
9:53 PM 63.0 °F 61.0 °F 93% 29.96 in 10.0 mi Variable 5.8 mph - N/A   Scattered Clouds
10:53 PM 61.0 °F 61.0 °F 100% 29.97 in 8.0 mi West 3.5 mph - N/A   Clear
11:53 PM 60.1 °F 60.1 °F 100% 29.99 in 8.0 mi NNW 4.6 mph - N/A   Scattered Clouds